Time;durP1;ratioP1;P1;durP2;ratioP2;P2;SDS_P1;SDS_P2;PMS_P1;PMS_P2;Temp;Humidity;BMP_temperature;BMP_pressure;BME280_temperature;BME280_humidity;BME280_pressure;Samples;Min_cycle;Max_cycle;Signal;HPM_P1;HPM_P2
2023/04/14 00:01:16;;;;;;;11.75;5.70;;;2.10;99.90;;;;;;5032197;28;20104;-73
2023/04/14 00:03:42;;;;;;;14.65;6.97;;;2.10;99.90;;;;;;5032133;28;20344;-73
2023/04/14 00:06:09;;;;;;;11.30;5.80;;;2.00;99.90;;;;;;5029967;28;20021;-73
2023/04/14 00:08:35;;;;;;;16.42;5.57;;;2.10;99.90;;;;;;5032197;28;20033;-73
2023/04/14 00:11:01;;;;;;;14.63;5.43;;;2.10;99.90;;;;;;5031592;28;20030;-72
2023/04/14 00:13:27;;;;;;;10.38;5.38;;;2.10;99.90;;;;;;5030726;28;20042;-73
2023/04/14 00:15:54;;;;;;;13.02;5.28;;;2.00;99.90;;;;;;5029776;28;20033;-74
2023/04/14 00:18:20;;;;;;;14.93;5.97;;;2.00;99.90;;;;;;5031762;28;20037;-74
2023/04/14 00:20:46;;;;;;;13.05;5.47;;;2.00;99.90;;;;;;5013109;28;20042;-73
2023/04/14 00:23:13;;;;;;;14.18;6.45;;;2.00;99.90;;;;;;5030752;28;20275;-73
2023/04/14 00:25:39;;;;;;;16.33;6.50;;;1.90;99.90;;;;;;5025901;28;20285;-73
2023/04/14 00:28:05;;;;;;;14.70;6.22;;;1.90;99.90;;;;;;5028895;28;20044;-73
2023/04/14 00:30:31;;;;;;;15.40;6.20;;;1.90;99.90;;;;;;5028519;28;20034;-73
2023/04/14 00:32:57;;;;;;;15.07;6.85;;;1.80;99.90;;;;;;5031733;28;20045;-73
2023/04/14 00:35:24;;;;;;;13.02;6.50;;;1.80;99.90;;;;;;5030513;28;20044;-73
2023/04/14 00:37:55;;;;;;;13.93;6.38;;;1.60;99.90;;;;;;5032010;28;20026;-72
2023/04/14 00:40:21;;;;;;;15.52;6.60;;;1.60;99.90;;;;;;5032201;28;20390;-73
2023/04/14 00:42:47;;;;;;;16.05;7.63;;;1.50;99.90;;;;;;5031536;28;20417;-73
2023/04/14 00:45:14;;;;;;;13.75;7.28;;;1.40;99.90;;;;;;5029736;28;20051;-75
2023/04/14 00:47:45;;;;;;;16.42;8.00;;;1.40;99.90;;;;;;5031497;28;20056;-73
2023/04/14 00:50:13;;;;;;;18.58;8.90;;;1.40;99.90;;;;;;5027220;28;20045;-73
2023/04/14 00:52:43;;;;;;;16.45;8.05;;;1.40;99.90;;;;;;5031158;28;20038;-73
2023/04/14 00:55:09;;;;;;;17.80;8.02;;;1.30;99.90;;;;;;5025284;28;20463;-75
2023/04/14 00:57:36;;;;;;;20.45;8.98;;;1.30;99.90;;;;;;5022977;28;20041;-73
2023/04/14 01:00:04;;;;;;;19.30;8.02;;;1.40;99.90;;;;;;5028868;28;20045;-73
2023/04/14 01:02:30;;;;;;;20.70;9.05;;;1.40;99.90;;;;;;5031596;28;20049;-73
2023/04/14 01:04:57;;;;;;;19.00;8.57;;;1.40;99.90;;;;;;5027849;28;20076;-72
2023/04/14 01:07:25;;;;;;;20.80;8.45;;;1.50;99.90;;;;;;5021344;28;20041;-72
2023/04/14 01:09:54;;;;;;;20.52;8.48;;;1.40;99.90;;;;;;5031220;28;20471;-72
2023/04/14 01:12:30;;;;;;;16.13;7.68;;;1.50;99.90;;;;;;5031388;28;20034;-73
2023/04/14 01:15:20;;;;;;;19.33;8.65;;;1.50;99.90;;;;;;5018369;28;20479;-73
2023/04/14 01:17:56;;;;;;;17.23;7.88;;;1.30;99.90;;;;;;5031880;28;20351;-73
2023/04/14 01:20:49;;;;;;;15.25;8.05;;;1.20;99.90;;;;;;5027703;28;20048;-73
2023/04/14 01:23:24;;;;;;;12.90;7.07;;;1.20;99.90;;;;;;5022633;28;20048;-73
2023/04/14 01:26:01;;;;;;;17.98;7.65;;;1.20;99.90;;;;;;5038011;28;20046;-72
2023/04/14 01:28:55;;;;;;;15.60;7.65;;;1.20;99.90;;;;;;5043361;28;20037;-72
2023/04/14 01:32:04;;;;;;;13.77;7.80;;;1.30;99.90;;;;;;5021345;28;20391;-72
2023/04/14 01:35:04;;;;;;;17.55;8.27;;;1.20;99.90;;;;;;5029656;28;20049;-73
2023/04/14 01:37:34;;;;;;;20.63;8.25;;;1.30;99.90;;;;;;5027238;28;20049;-72
2023/04/14 01:40:06;;;;;;;20.90;8.32;;;1.20;99.90;;;;;;5031361;28;20052;-72
2023/04/14 01:42:35;;;;;;;20.17;8.25;;;1.10;99.90;;;;;;5025561;28;20050;-72
2023/04/14 01:45:09;;;;;;;18.20;8.07;;;1.00;99.90;;;;;;5026902;28;20054;-74
2023/04/14 01:47:39;;;;;;;18.65;7.53;;;0.90;99.90;;;;;;5042070;28;20050;-73
2023/04/14 01:50:07;;;;;;;15.95;7.57;;;0.90;99.90;;;;;;5030124;28;20390;-74
2023/04/14 01:52:35;;;;;;;21.60;7.53;;;0.90;99.90;;;;;;5030540;28;20025;-75
2023/04/14 01:55:04;;;;;;;15.48;7.20;;;0.90;99.90;;;;;;5006342;28;20434;-75
2023/04/14 01:57:34;;;;;;;15.27;7.05;;;0.90;99.90;;;;;;5025306;28;20037;-73
2023/04/14 02:00:02;;;;;;;16.35;7.60;;;0.90;99.90;;;;;;5023109;28;20048;-74
2023/04/14 02:02:30;;;;;;;23.70;9.15;;;0.80;99.90;;;;;;5030765;28;20387;-73
2023/04/14 02:04:58;;;;;;;19.55;9.18;;;0.80;99.90;;;;;;5023406;28;20497;-78
2023/04/14 02:07:26;;;;;;;19.23;9.05;;;0.80;99.90;;;;;;5020838;28;20033;-73
2023/04/14 02:09:55;;;;;;;20.67;9.57;;;0.90;99.90;;;;;;5040415;28;20379;-73
2023/04/14 02:12:23;;;;;;;20.52;9.82;;;0.90;99.90;;;;;;5042192;28;20048;-73
2023/04/14 02:14:51;;;;;;;18.33;8.18;;;0.90;99.90;;;;;;5044446;28;20045;-73
2023/04/14 02:17:20;;;;;;;15.93;7.75;;;0.90;99.90;;;;;;5044994;28;20045;-74
2023/04/14 02:19:48;;;;;;;19.38;7.15;;;0.80;99.90;;;;;;5032025;28;20036;-72
2023/04/14 02:22:14;;;;;;;12.70;6.78;;;0.90;99.90;;;;;;5045547;28;20082;-73
2023/04/14 02:24:40;;;;;;;17.92;7.57;;;0.90;99.90;;;;;;5030778;28;20060;-77
2023/04/14 02:27:30;;;;;;;16.58;7.55;;;0.90;99.90;;;;;;5032831;28;20037;-73
2023/04/14 02:30:07;;;;;;;27.40;11.48;;;0.90;99.90;;;;;;5033581;28;20050;-73
2023/04/14 02:32:35;;;;;;;31.15;13.18;;;0.80;99.90;;;;;;5034453;28;20037;-72
2023/04/14 02:35:07;;;;;;;39.10;18.05;;;0.80;99.90;;;;;;5032123;28;20041;-73
2023/04/14 02:37:46;;;;;;;40.38;17.15;;;0.70;99.90;;;;;;5030482;28;20042;-72
2023/04/14 02:40:17;;;;;;;40.47;19.45;;;0.70;99.90;;;;;;5031075;28;20045;-73
2023/04/14 02:42:46;;;;;;;54.10;27.83;;;0.70;99.90;;;;;;5033185;28;20042;-72
2023/04/14 02:45:21;;;;;;;32.77;19.17;;;0.60;99.90;;;;;;5023852;28;20050;-73
2023/04/14 02:47:54;;;;;;;33.22;15.80;;;0.60;99.90;;;;;;5025862;28;20292;-72
2023/04/14 02:50:21;;;;;;;31.10;14.85;;;0.50;99.90;;;;;;5028263;28;20046;-77
2023/04/14 02:53:01;;;;;;;23.40;12.50;;;0.50;99.90;;;;;;5027882;28;20050;-74
2023/04/14 02:55:33;;;;;;;28.73;13.73;;;0.50;99.90;;;;;;5033321;28;20049;-72
2023/04/14 02:58:00;;;;;;;25.30;11.05;;;0.50;99.90;;;;;;5029245;28;20038;-74
2023/04/14 03:00:28;;;;;;;29.25;12.40;;;0.40;99.90;;;;;;5033144;28;20045;-72
2023/04/14 03:02:56;;;;;;;39.05;15.32;;;0.30;99.90;;;;;;5031507;28;20044;-73
2023/04/14 03:05:23;;;;;;;23.48;11.93;;;0.30;99.90;;;;;;5033011;28;20426;-73
2023/04/14 03:08:02;;;;;;;29.77;13.25;;;0.30;99.90;;;;;;5029178;28;20042;-74
2023/04/14 03:10:29;;;;;;;28.63;11.73;;;0.30;99.90;;;;;;5024379;28;20037;-72
2023/04/14 03:12:57;;;;;;;23.60;11.98;;;0.40;99.90;;;;;;5027933;28;20042;-72
2023/04/14 03:15:25;;;;;;;28.02;11.43;;;0.30;99.90;;;;;;5032678;28;20072;-72
2023/04/14 03:17:55;;;;;;;18.65;9.35;;;0.20;99.90;;;;;;5027202;28;20037;-72
2023/04/14 03:20:24;;;;;;;17.70;8.63;;;0.10;99.90;;;;;;5027324;28;20045;-72
2023/04/14 03:23:00;;;;;;;17.75;8.13;;;0.00;99.90;;;;;;5025502;28;20046;-77
2023/04/14 03:25:29;;;;;;;20.63;8.07;;;0.00;99.90;;;;;;5017216;28;20050;-74
2023/04/14 03:28:00;;;;;;;17.75;7.78;;;0.00;99.90;;;;;;5026322;28;20471;-73
2023/04/14 03:30:30;;;;;;;16.30;8.15;;;-0.10;99.90;;;;;;5044700;28;20048;-73
2023/04/14 03:33:02;;;;;;;15.27;7.57;;;-0.10;99.90;;;;;;5024271;28;20049;-73
2023/04/14 03:35:30;;;;;;;17.50;6.97;;;-0.10;99.90;;;;;;5024088;28;20057;-73
2023/04/14 03:37:59;;;;;;;14.75;7.57;;;-0.10;99.90;;;;;;5028399;28;20145;-72
2023/04/14 03:40:30;;;;;;;24.42;9.93;;;-0.10;99.90;;;;;;5027825;28;20041;-72
2023/04/14 03:42:58;;;;;;;19.13;8.68;;;-0.20;99.90;;;;;;5037999;28;20050;-72
2023/04/14 03:45:27;;;;;;;16.73;8.10;;;-0.20;99.90;;;;;;5029555;28;20442;-72
2023/04/14 03:48:01;;;;;;;15.93;7.50;;;-0.20;99.90;;;;;;5022996;28;20068;-78
2023/04/14 03:50:31;;;;;;;18.85;8.10;;;-0.20;99.90;;;;;;5023802;28;20041;-76
2023/04/14 03:52:58;;;;;;;14.70;7.32;;;-0.10;99.90;;;;;;5031703;28;20049;-73
2023/04/14 03:55:27;;;;;;;15.00;8.52;;;-0.20;99.90;;;;;;5029967;28;20406;-73
2023/04/14 03:57:56;;;;;;;15.57;7.10;;;-0.20;99.90;;;;;;5032252;28;20049;-73
2023/04/14 04:00:26;;;;;;;11.85;6.78;;;-0.30;99.90;;;;;;5025678;28;20037;-73
2023/04/14 04:02:56;;;;;;;20.75;6.70;;;-0.20;99.90;;;;;;5041777;28;20037;-73
2023/04/14 04:05:22;;;;;;;15.13;6.95;;;-0.10;99.90;;;;;;5031295;28;20037;-73
2023/04/14 04:07:49;;;;;;;14.20;7.65;;;-0.10;99.90;;;;;;5038206;28;20041;-73
2023/04/14 04:10:17;;;;;;;18.08;6.80;;;-0.10;99.90;;;;;;5021164;28;20045;-73
2023/04/14 04:12:45;;;;;;;14.98;7.15;;;-0.10;99.90;;;;;;5018700;28;20034;-72
2023/04/14 04:15:12;;;;;;;15.73;7.07;;;-0.10;99.90;;;;;;5024153;28;20053;-73
2023/04/14 04:17:42;;;;;;;17.67;6.80;;;-0.10;99.90;;;;;;5031739;28;20045;-72
2023/04/14 04:20:13;;;;;;;14.02;7.80;;;0.10;99.90;;;;;;5030439;28;20041;-73
2023/04/14 04:22:43;;;;;;;20.60;7.85;;;0.20;99.90;;;;;;5024317;28;20049;-72
2023/04/14 04:25:10;;;;;;;16.42;8.18;;;0.20;99.90;;;;;;5029604;28;20050;-73
2023/04/14 04:27:38;;;;;;;16.63;7.45;;;0.10;99.90;;;;;;5025173;28;20474;-73
2023/04/14 04:30:14;;;;;;;19.92;7.68;;;0.00;99.90;;;;;;5023025;28;20041;-73
2023/04/14 04:32:40;;;;;;;18.75;8.13;;;0.00;99.90;;;;;;5041563;28;20042;-72
2023/04/14 04:35:08;;;;;;;20.67;9.27;;;-0.10;99.90;;;;;;5017019;28;20060;-71
2023/04/14 04:37:38;;;;;;;24.73;8.50;;;-0.10;99.90;;;;;;5022319;28;20029;-78
2023/04/14 04:40:06;;;;;;;19.40;8.13;;;-0.20;99.90;;;;;;5022028;28;20052;-72
2023/04/14 04:42:32;;;;;;;18.60;8.05;;;-0.20;99.90;;;;;;5026375;28;20497;-72
2023/04/14 04:44:58;;;;;;;16.42;7.95;;;-0.20;99.90;;;;;;5031539;28;20045;-71
2023/04/14 04:47:25;;;;;;;20.77;8.48;;;-0.20;99.90;;;;;;5024994;28;20398;-72
2023/04/14 04:49:51;;;;;;;20.10;8.48;;;-0.20;99.90;;;;;;5026755;28;20037;-72
2023/04/14 04:52:17;;;;;;;20.00;8.93;;;-0.20;99.90;;;;;;5030814;28;20045;-72
2023/04/14 04:54:44;;;;;;;18.92;8.88;;;-0.20;99.90;;;;;;5031241;28;20041;-72
2023/04/14 04:57:10;;;;;;;18.05;9.45;;;-0.10;99.90;;;;;;5027032;28;20045;-73
2023/04/14 04:59:36;;;;;;;21.45;10.18;;;0.00;99.90;;;;;;5030531;28;20037;-72
2023/04/14 05:02:02;;;;;;;24.35;10.40;;;0.00;99.90;;;;;;5026542;28;20041;-73
2023/04/14 05:04:28;;;;;;;28.38;9.95;;;0.10;99.90;;;;;;5030348;28;20438;-72
2023/04/14 05:06:54;;;;;;;26.83;10.65;;;0.20;99.90;;;;;;5030454;28;20060;-73
2023/04/14 05:09:20;;;;;;;38.88;13.98;;;0.20;99.90;;;;;;5028515;28;20029;-73
2023/04/14 05:11:47;;;;;;;37.42;11.48;;;0.30;99.90;;;;;;5030059;28;20026;-72
2023/04/14 05:14:13;;;;;;;23.45;9.60;;;0.30;99.90;;;;;;5030800;28;20026;-74
2023/04/14 05:16:39;;;;;;;29.40;10.95;;;0.40;99.90;;;;;;5031149;28;20025;-73
2023/04/14 05:19:05;;;;;;;20.75;9.02;;;0.40;99.90;;;;;;5029461;28;20442;-74
2023/04/14 05:21:31;;;;;;;24.05;11.80;;;0.60;99.90;;;;;;5030870;28;20021;-72
2023/04/14 05:23:59;;;;;;;21.77;11.32;;;0.80;99.90;;;;;;5026497;28;20364;-72
2023/04/14 05:26:25;;;;;;;25.60;12.23;;;1.10;99.90;;;;;;5028195;28;20076;-72
2023/04/14 05:28:51;;;;;;;29.70;12.57;;;1.30;99.90;;;;;;5029391;28;20030;-72
2023/04/14 05:31:17;;;;;;;37.22;14.13;;;1.60;99.90;;;;;;5030149;28;20033;-72
2023/04/14 05:33:43;;;;;;;34.13;15.50;;;1.90;99.90;;;;;;5030514;28;20036;-73
2023/04/14 05:36:10;;;;;;;30.75;17.13;;;2.20;99.90;;;;;;5029925;28;20045;-73
2023/04/14 05:38:39;;;;;;;25.25;12.60;;;2.80;99.90;;;;;;5029954;28;20048;-73
2023/04/14 05:41:06;;;;;;;21.50;10.57;;;3.20;99.90;;;;;;5030738;28;20025;-78
2023/04/14 05:43:32;;;;;;;23.45;10.00;;;4.10;99.90;;;;;;5031274;28;20514;-73
2023/04/14 05:46:00;;;;;;;17.75;8.60;;;4.80;99.90;;;;;;5027082;28;20037;-73
2023/04/14 05:48:29;;;;;;;16.42;7.43;;;4.70;99.90;;;;;;5028084;28;20407;-74
2023/04/14 05:50:58;;;;;;;17.95;8.35;;;4.10;99.90;;;;;;5032609;28;20064;-73
2023/04/14 05:53:24;;;;;;;13.80;7.03;;;4.00;99.90;;;;;;5031372;28;20044;-73
2023/04/14 05:55:51;;;;;;;14.05;7.75;;;4.00;99.90;;;;;;5035142;28;20029;-73
2023/04/14 05:58:17;;;;;;;13.85;7.13;;;4.90;99.90;;;;;;5030387;28;20048;-73
2023/04/14 06:00:43;;;;;;;11.13;6.97;;;5.80;99.90;;;;;;5033945;28;21001;-73
2023/04/14 06:03:09;;;;;;;10.60;6.68;;;6.20;99.90;;;;;;5033991;28;20397;-74
2023/04/14 06:05:35;;;;;;;11.88;6.85;;;6.20;38.00;;;;;;5034120;28;20041;-74
2023/04/14 06:08:01;;;;;;;10.38;6.65;;;6.30;1.00;;;;;;5032873;28;20424;-73
2023/04/14 06:10:27;;;;;;;9.60;6.32;;;7.00;1.00;;;;;;5033552;28;20037;-73
2023/04/14 06:12:54;;;;;;;10.13;6.50;;;7.20;1.00;;;;;;5033871;28;20045;-74
2023/04/14 06:15:20;;;;;;;11.02;6.45;;;7.50;1.00;;;;;;5033161;28;20394;-75
2023/04/14 06:17:46;;;;;;;9.38;6.22;;;7.70;1.00;;;;;;5033406;28;20040;-74
2023/04/14 06:20:13;;;;;;;8.80;5.35;;;8.00;1.00;;;;;;5032857;28;20033;-72
2023/04/14 06:22:39;;;;;;;9.82;5.50;;;7.80;1.00;;;;;;5033499;28;20390;-73
2023/04/14 06:25:06;;;;;;;11.48;6.80;;;8.00;1.00;;;;;;5033519;28;20053;-73
2023/04/14 06:27:32;;;;;;;9.23;5.85;;;8.30;1.00;;;;;;5033524;28;20034;-73
2023/04/14 06:30:01;;;;;;;12.43;5.97;;;8.20;1.00;;;;;;5027935;28;20041;-72
2023/04/14 06:32:27;;;;;;;8.27;5.20;;;8.60;1.00;;;;;;5025144;28;20040;-73
2023/04/14 06:34:53;;;;;;;9.02;4.85;;;8.90;1.00;;;;;;5034457;28;20022;-73
2023/04/14 06:37:19;;;;;;;9.55;5.38;;;9.30;1.00;;;;;;5032518;28;20027;-73
2023/04/14 06:39:45;;;;;;;9.30;4.68;;;8.70;99.90;;;;;;5033750;28;20489;-73
2023/04/14 06:42:12;;;;;;;11.20;5.05;;;8.40;99.90;;;;;;5030779;28;20037;-73
2023/04/14 06:44:39;;;;;;;11.35;5.50;;;8.90;99.90;;;;;;5028802;28;20048;-73
2023/04/14 06:47:05;;;;;;;9.80;5.53;;;8.80;99.90;;;;;;5031920;28;20029;-73
2023/04/14 06:49:31;;;;;;;12.05;5.57;;;9.50;99.90;;;;;;5031506;28;20352;-73
2023/04/14 06:51:58;;;;;;;12.05;5.78;;;10.00;99.90;;;;;;5026703;28;20403;-73
2023/04/14 06:54:24;;;;;;;18.23;5.70;;;10.30;99.90;;;;;;5030206;28;20120;-74
2023/04/14 06:56:53;;;;;;;18.27;5.95;;;10.60;99.90;;;;;;5031191;28;20033;-74
2023/04/14 06:59:21;;;;;;;9.70;4.63;;;10.80;99.90;;;;;;5029381;28;20025;-73
2023/04/14 07:01:48;;;;;;;12.90;6.13;;;11.10;99.90;;;;;;5031271;28;20034;-74
2023/04/14 07:04:14;;;;;;;11.10;5.82;;;10.80;99.90;;;;;;5028868;28;20495;-73
2023/04/14 07:06:40;;;;;;;12.40;5.20;;;10.50;99.90;;;;;;5030782;28;20041;-74
2023/04/14 07:09:06;;;;;;;15.20;5.80;;;10.70;99.90;;;;;;5032486;28;20040;-73
2023/04/14 07:11:32;;;;;;;12.20;6.22;;;11.00;99.90;;;;;;5030211;28;20045;-74
2023/04/14 07:13:58;;;;;;;14.52;6.13;;;10.90;99.90;;;;;;5032554;28;20478;-73
2023/04/14 07:16:24;;;;;;;18.38;8.82;;;10.60;99.90;;;;;;5031840;28;20044;-73
2023/04/14 07:18:51;;;;;;;15.25;6.60;;;11.00;99.90;;;;;;5031573;28;20132;-74
2023/04/14 07:21:17;;;;;;;8.90;5.10;;;10.80;99.90;;;;;;5029627;28;20036;-78
2023/04/14 07:23:43;;;;;;;9.35;5.32;;;9.90;99.90;;;;;;5031269;28;20029;-74
2023/04/14 07:26:09;;;;;;;12.48;6.63;;;10.40;99.90;;;;;;5028405;28;20072;-74
2023/04/14 07:28:36;;;;;;;9.35;5.03;;;10.80;99.90;;;;;;5031760;28;20044;-74
2023/04/14 07:31:09;;;;;;;13.18;5.55;;;10.70;99.90;;;;;;5030563;28;20482;-74
2023/04/14 07:33:35;;;;;;;8.00;5.40;;;11.40;99.90;;;;;;5019319;28;20041;-74
2023/04/14 07:36:06;;;;;;;9.18;4.60;;;10.60;99.90;;;;;;5032328;28;20029;-74
2023/04/14 07:38:33;;;;;;;10.60;4.90;;;10.10;99.90;;;;;;5032007;28;20037;-75
2023/04/14 07:41:02;;;;;;;11.30;5.45;;;10.10;99.90;;;;;;4994816;28;1058147;-74
2023/04/14 07:43:33;;;;;;;10.98;4.95;;;10.20;99.90;;;;;;5024938;28;20037;-74
2023/04/14 07:46:03;;;;;;;11.38;4.80;;;11.40;99.90;;;;;;5029210;28;20042;-74
2023/04/14 07:48:33;;;;;;;10.18;4.97;;;12.10;99.90;;;;;;5028200;28;20044;-74
2023/04/14 07:50:59;;;;;;;7.47;4.18;;;12.50;51.50;;;;;;5033443;28;20456;-75
2023/04/14 07:53:26;;;;;;;7.32;4.38;;;11.30;49.80;;;;;;5028048;28;20053;-74
2023/04/14 07:55:52;;;;;;;10.00;4.75;;;10.20;99.90;;;;;;5026571;28;20466;-75
2023/04/14 07:58:18;;;;;;;11.05;4.32;;;10.00;99.90;;;;;;5026733;28;20045;-74
2023/04/14 08:00:44;;;;;;;11.02;4.80;;;10.10;99.90;;;;;;5031497;28;20029;-74
2023/04/14 08:03:12;;;;;;;11.25;5.07;;;11.40;99.90;;;;;;5030349;28;20032;-75
2023/04/14 08:05:38;;;;;;;9.90;4.70;;;12.40;92.50;;;;;;5027188;28;20049;-74
2023/04/14 08:08:04;;;;;;;9.65;4.45;;;12.60;15.90;;;;;;5032626;28;20033;-74
2023/04/14 08:10:30;;;;;;;10.10;5.25;;;12.10;30.70;;;;;;5031838;28;20034;-75
2023/04/14 08:12:59;;;;;;;10.02;4.90;;;10.70;99.90;;;;;;5030620;28;20036;-73
2023/04/14 08:15:25;;;;;;;11.20;5.13;;;10.70;99.90;;;;;;5031756;28;20487;-72
2023/04/14 08:17:51;;;;;;;11.02;4.72;;;11.00;99.90;;;;;;5029017;28;20029;-73
2023/04/14 08:20:17;;;;;;;8.60;4.80;;;10.70;99.90;;;;;;5027194;28;20402;-72
2023/04/14 08:22:44;;;;;;;9.35;4.70;;;10.80;99.90;;;;;;5025633;28;20033;-72
2023/04/14 08:25:11;;;;;;;9.40;4.63;;;10.70;99.90;;;;;;5031046;28;20049;-73
2023/04/14 08:27:37;;;;;;;7.97;3.70;;;12.00;32.60;;;;;;5031698;28;20378;-73
2023/04/14 08:30:04;;;;;;;9.75;4.30;;;13.10;36.60;;;;;;5029608;28;20033;-73
2023/04/14 08:32:30;;;;;;;8.73;4.47;;;13.90;1.00;;;;;;5028097;28;20038;-77
2023/04/14 08:34:56;;;;;;;9.93;3.50;;;14.00;1.00;;;;;;5029415;28;20034;-74
2023/04/14 08:37:23;;;;;;;10.63;2.55;;;12.90;31.20;;;;;;5027652;28;20025;-73
2023/04/14 08:39:49;;;;;;;5.88;3.30;;;12.40;1.00;;;;;;5030825;28;20049;-75
2023/04/14 08:42:16;;;;;;;9.55;2.58;;;12.20;1.00;;;;;;5031677;28;20046;-75
2023/04/14 08:44:42;;;;;;;9.35;3.38;;;12.10;1.00;;;;;;5030734;28;20074;-74
2023/04/14 08:47:09;;;;;;;8.80;2.80;;;12.10;40.00;;;;;;5028569;28;20044;-74
2023/04/14 08:49:44;;;;;;;5.97;2.10;;;12.30;1.00;;;;;;5031085;28;20036;-74
2023/04/14 08:52:11;;;;;;;6.53;2.58;;;12.50;22.20;;;;;;5032065;28;20382;-74
2023/04/14 08:54:42;;;;;;;4.50;1.75;;;12.40;1.00;;;;;;5029775;28;20378;-74
2023/04/14 08:57:08;;;;;;;;;;;12.20;1.00;;;;;;5030472;28;20041;-75
2023/04/14 08:59:35;;;;;;;6.35;2.05;;;12.80;1.00;;;;;;5029069;28;19909;-75
2023/04/14 09:02:04;;;;;;;10.50;2.00;;;14.10;1.00;;;;;;5024813;28;20041;-75
2023/04/14 09:04:32;;;;;;;4.05;1.75;;;14.30;1.00;;;;;;5028548;28;20034;-75
2023/04/14 09:06:58;;;;;;;5.57;1.67;;;12.80;1.00;;;;;;5030547;28;20054;-74
2023/04/14 09:09:25;;;;;;;6.30;1.98;;;13.10;1.00;;;;;;5030083;28;20060;-76
2023/04/14 09:11:51;;;;;;;6.82;2.10;;;12.80;1.00;;;;;;5030429;28;20044;-75
2023/04/14 09:14:19;;;;;;;9.52;2.28;;;13.90;1.00;;;;;;5028366;28;20038;-75
2023/04/14 09:16:47;;;;;;;8.75;2.50;;;13.00;1.00;;;;;;5030322;28;20048;-75
2023/04/14 09:19:15;;;;;;;8.38;1.83;;;13.40;1.00;;;;;;5031517;28;20056;-75
2023/04/14 09:21:41;;;;;;;7.07;2.42;;;13.90;1.00;;;;;;5025368;28;20041;-74
2023/04/14 09:24:07;;;;;;;6.82;2.33;;;14.00;1.00;;;;;;5029729;28;20101;-74
2023/04/14 09:26:33;;;;;;;6.50;1.95;;;13.50;1.00;;;;;;5026720;28;20042;-74
2023/04/14 09:28:59;;;;;;;4.97;2.00;;;13.00;1.00;;;;;;5028503;28;20025;-74
2023/04/14 09:31:26;;;;;;;6.68;2.08;;;13.90;1.00;;;;;;5020278;28;20471;-74
2023/04/14 09:33:52;;;;;;;5.68;1.80;;;14.30;1.00;;;;;;5029291;28;20042;-74
2023/04/14 09:36:20;;;;;;;7.28;2.22;;;14.10;1.00;;;;;;5030029;28;20370;-76
2023/04/14 09:38:48;;;;;;;5.93;2.15;;;13.20;1.00;;;;;;5027597;28;20044;-74
2023/04/14 09:41:22;;;;;;;6.53;1.70;;;12.30;1.00;;;;;;5031084;28;20466;-74
2023/04/14 09:43:49;;;;;;;4.65;1.60;;;13.10;1.00;;;;;;5029072;28;20045;-74
2023/04/14 09:46:15;;;;;;;4.10;1.67;;;13.30;1.00;;;;;;5029967;28;20503;-74
2023/04/14 09:48:54;;;;;;;6.32;1.55;;;13.30;1.00;;;;;;5029302;28;20038;-74
2023/04/14 09:51:22;;;;;;;5.35;2.00;;;14.00;1.00;;;;;;5029160;28;20030;-74
2023/04/14 09:53:51;;;;;;;5.53;1.77;;;13.90;1.00;;;;;;5029646;28;20033;-74
2023/04/14 09:56:19;;;;;;;5.63;1.90;;;14.00;1.00;;;;;;5030718;28;20398;-81
2023/04/14 09:58:47;;;;;;;6.70;1.70;;;13.70;1.00;;;;;;5030709;28;20029;-73
2023/04/14 10:01:16;;;;;;;6.35;1.90;;;14.40;1.00;;;;;;5027538;28;20386;-73
2023/04/14 10:03:44;;;;;;;5.20;1.65;;;15.40;1.00;;;;;;5028739;28;20025;-73
2023/04/14 10:06:21;;;;;;;8.10;1.98;;;15.00;1.00;;;;;;5030249;28;20129;-73
2023/04/14 10:08:48;;;;;;;4.35;1.73;;;14.50;1.00;;;;;;5027123;28;20034;-72
2023/04/14 10:11:19;;;;;;;4.18;1.83;;;14.20;1.00;;;;;;5030480;28;20037;-73
2023/04/14 10:13:47;;;;;;;8.60;2.08;;;14.00;1.00;;;;;;5028779;28;20033;-73
2023/04/14 10:16:14;;;;;;;8.35;2.28;;;13.40;1.00;;;;;;5029997;28;20033;-74
2023/04/14 10:18:41;;;;;;;6.07;1.83;;;13.30;1.00;;;;;;5031847;28;20045;-74
2023/04/14 10:21:08;;;;;;;6.97;1.55;;;13.30;1.00;;;;;;5040360;28;20033;-74
2023/04/14 10:23:40;;;;;;;10.25;2.55;;;13.30;1.00;;;;;;5022041;28;20030;-74
2023/04/14 10:26:10;;;;;;;6.40;2.28;;;13.40;1.00;;;;;;5028740;28;20045;-73
2023/04/14 10:28:39;;;;;;;;;;;12.70;1.00;;;;;;5028600;28;20030;-74
2023/04/14 10:31:12;;;;;;;11.18;2.50;;;13.10;1.00;;;;;;5031005;28;19913;-74
2023/04/14 10:33:38;;;;;;;5.60;1.83;;;13.40;1.00;;;;;;5029304;28;20383;-73
2023/04/14 10:36:04;;;;;;;8.27;2.33;;;13.20;1.00;;;;;;5022150;28;20037;-74
2023/04/14 10:38:45;;;;;;;8.88;1.95;;;13.20;1.00;;;;;;5033460;28;20034;-75
2023/04/14 10:41:12;;;;;;;6.63;2.53;;;13.80;1.00;;;;;;5031214;28;20038;-74
2023/04/14 10:43:39;;;;;;;8.65;2.13;;;13.90;1.00;;;;;;5032490;28;20030;-74
2023/04/14 10:46:06;;;;;;;5.40;1.33;;;14.10;1.00;;;;;;5029939;28;20394;-73
2023/04/14 10:48:38;;;;;;;4.68;1.80;;;14.00;1.00;;;;;;5030475;28;20033;-74
2023/04/14 10:51:09;;;;;;;6.90;1.90;;;13.50;1.00;;;;;;5031999;28;20040;-74
2023/04/14 10:53:43;;;;;;;5.30;1.65;;;13.30;1.00;;;;;;5030412;28;20033;-73
2023/04/14 10:56:10;;;;;;;6.07;2.17;;;13.30;1.00;;;;;;5033667;28;20471;-75
2023/04/14 10:58:36;;;;;;;3.67;1.02;;;13.10;1.00;;;;;;5031158;28;20041;-75
2023/04/14 11:01:23;;;;;;;4.45;1.30;;;13.40;1.00;;;;;;5033550;28;20056;-75
2023/04/14 11:03:49;;;;;;;4.60;1.52;;;13.40;1.00;;;;;;5031286;28;20033;-74
2023/04/14 11:06:44;;;;;;;7.38;1.75;;;13.60;1.00;;;;;;5032221;28;20049;-74
2023/04/14 11:09:29;;;;;;;6.75;1.95;;;13.70;1.00;;;;;;5028712;28;20029;-74
2023/04/14 11:11:58;;;;;;;6.13;1.83;;;14.00;1.00;;;;;;5030784;28;20033;-74
2023/04/14 11:14:26;;;;;;;6.20;1.92;;;13.80;1.00;;;;;;5028533;28;20478;-74
2023/04/14 11:17:00;;;;;;;5.50;1.77;;;13.70;1.00;;;;;;5032608;28;20037;-74
2023/04/14 11:19:27;;;;;;;5.90;2.55;;;14.10;1.00;;;;;;5032062;28;20037;-74
2023/04/14 11:21:54;;;;;;;4.43;1.48;;;14.10;1.00;;;;;;5032515;28;20033;-74
2023/04/14 11:24:21;;;;;;;10.00;2.58;;;14.30;1.00;;;;;;5032415;28;20088;-74
2023/04/14 11:26:50;;;;;;;4.03;1.52;;;14.20;1.00;;;;;;5032073;28;20045;-74
2023/04/14 11:29:16;;;;;;;5.60;2.35;;;14.30;1.00;;;;;;5033540;28;20025;-74
2023/04/14 11:31:43;;;;;;;6.38;1.90;;;14.40;1.00;;;;;;5027191;28;20033;-74
2023/04/14 11:34:09;;;;;;;6.97;2.03;;;14.50;1.00;;;;;;5032896;28;20040;-73
2023/04/14 11:36:38;;;;;;;8.50;2.25;;;14.50;1.00;;;;;;5029143;28;20033;-74
2023/04/14 11:39:05;;;;;;;8.82;2.50;;;14.50;1.00;;;;;;5030280;28;20060;-74
2023/04/14 11:41:31;;;;;;;6.97;1.98;;;14.70;1.00;;;;;;5031741;28;20375;-74
2023/04/14 11:43:58;;;;;;;5.13;2.03;;;14.40;1.00;;;;;;5030476;28;20033;-75
2023/04/14 11:46:25;;;;;;;9.18;2.15;;;13.70;1.00;;;;;;5026567;28;20513;-74
2023/04/14 11:48:55;;;;;;;8.70;2.00;;;13.40;1.00;;;;;;5021209;28;20040;-74
2023/04/14 11:51:29;;;;;;;6.47;2.90;;;13.50;1.00;;;;;;5032059;28;20041;-75
2023/04/14 11:53:56;;;;;;;7.82;2.63;;;14.00;1.00;;;;;;5025996;28;20379;-73
2023/04/14 11:56:22;;;;;;;6.60;2.95;;;14.30;1.00;;;;;;5029253;28;20410;-73
2023/04/14 11:58:49;;;;;;;7.78;2.53;;;14.70;1.00;;;;;;5033247;28;20026;-73
2023/04/14 12:01:22;;;;;;;8.38;2.58;;;14.90;1.00;;;;;;5032809;28;20049;-74
2023/04/14 12:03:49;;;;;;;8.52;2.33;;;14.70;1.00;;;;;;5023663;28;20040;-74
2023/04/14 12:06:15;;;;;;;7.03;2.22;;;14.70;1.00;;;;;;5028951;28;20060;-73
2023/04/14 12:08:41;;;;;;;7.03;2.78;;;15.00;1.00;;;;;;5029815;28;20041;-74
2023/04/14 12:11:15;;;;;;;6.45;2.70;;;15.00;1.00;;;;;;5031034;28;20125;-74
2023/04/14 12:13:43;;;;;;;15.98;9.25;;;15.30;1.00;;;;;;5030364;28;20029;-74
2023/04/14 12:16:13;;;;;;;6.28;3.17;;;14.80;1.00;;;;;;5023488;28;20034;-74
2023/04/14 12:18:40;;;;;;;10.20;5.45;;;14.70;1.00;;;;;;5029569;28;20049;-74
2023/04/14 12:21:07;;;;;;;8.77;4.13;;;14.50;1.00;;;;;;5027292;28;20029;-74
2023/04/14 12:23:37;;;;;;;12.05;2.33;;;14.30;1.00;;;;;;5032288;28;20029;-74
2023/04/14 12:26:11;;;;;;;7.30;3.03;;;14.00;1.00;;;;;;5023932;28;20042;-74
2023/04/14 12:28:40;;;;;;;5.93;2.40;;;13.80;1.00;;;;;;5030803;28;20059;-74
2023/04/14 12:31:07;;;;;;;6.05;2.05;;;14.00;1.00;;;;;;5031308;28;20041;-74
2023/04/14 12:33:33;;;;;;;6.63;2.25;;;14.40;1.00;;;;;;5030842;28;20391;-74
2023/04/14 12:36:04;;;;;;;6.25;2.17;;;14.80;1.00;;;;;;5031020;28;20370;-74
2023/04/14 12:38:30;;;;;;;7.35;2.10;;;15.20;1.00;;;;;;5027902;28;20042;-74
2023/04/14 12:40:57;;;;;;;7.18;1.92;;;15.70;1.00;;;;;;5030844;28;20037;-74
2023/04/14 12:43:34;;;;;;;8.60;2.00;;;15.80;1.00;;;;;;5022403;28;20050;-74
2023/04/14 12:46:04;;;;;;;8.45;2.53;;;15.90;1.00;;;;;;5028241;28;20029;-74
2023/04/14 12:48:45;;;;;;;7.30;2.40;;;16.00;1.00;;;;;;5031291;28;20033;-74
2023/04/14 12:51:14;;;;;;;5.47;2.13;;;15.90;1.00;;;;;;5031646;28;20367;-73
2023/04/14 12:53:41;;;;;;;5.35;1.95;;;15.40;1.00;;;;;;5027900;28;20386;-74
2023/04/14 12:56:20;;;;;;;5.85;2.25;;;14.80;1.00;;;;;;5030130;28;20483;-74